Time;durP1;ratioP1;P1;durP2;ratioP2;P2;SDS_P1;SDS_P2;PMS_P1;PMS_P2;Temp;Humidity;BMP_temperature;BMP_pressure;BME280_temperature;BME280_humidity;BME280_pressure;Samples;Min_cycle;Max_cycle;Signal;HPM_P1;HPM_P2
2024/02/02 00:00:14;;;;;;;25.40;6.90;;;5.50;99.90;;;;;;5072542;28;20067;-73
2024/02/02 00:02:39;;;;;;;15.98;5.75;;;5.60;99.90;;;;;;5054661;28;20407;-73
2024/02/02 00:05:06;;;;;;;27.08;5.78;;;5.80;99.90;;;;;;5054288;28;20119;-73
2024/02/02 00:07:32;;;;;;;24.25;5.88;;;5.90;99.90;;;;;;5038149;28;20415;-73
2024/02/02 00:09:57;;;;;;;20.65;4.90;;;5.80;99.90;;;;;;5054223;28;20040;-73
2024/02/02 00:12:23;;;;;;;24.17;5.43;;;5.80;99.90;;;;;;5054480;28;20048;-73
2024/02/02 00:14:49;;;;;;;22.13;5.85;;;5.80;99.90;;;;;;5072234;28;20036;-73
2024/02/02 00:17:15;;;;;;;26.20;5.00;;;5.70;99.90;;;;;;5054206;28;20044;-73
2024/02/02 00:19:40;;;;;;;25.42;5.50;;;5.90;99.90;;;;;;5054136;28;20048;-73
2024/02/02 00:22:07;;;;;;;24.73;6.88;;;5.80;99.90;;;;;;5072160;28;20507;-73
2024/02/02 00:24:32;;;;;;;21.90;5.38;;;6.00;99.90;;;;;;5071995;28;20114;-73
2024/02/02 00:26:58;;;;;;;22.38;6.97;;;5.70;99.90;;;;;;5054085;28;20404;-72
2024/02/02 00:29:24;;;;;;;14.18;4.82;;;6.00;99.90;;;;;;5071941;28;20496;-73
2024/02/02 00:31:49;;;;;;;24.77;5.90;;;5.80;99.90;;;;;;5054253;28;20055;-73
2024/02/02 00:34:15;;;;;;;23.45;5.93;;;5.80;99.90;;;;;;5071804;28;20059;-72
2024/02/02 00:36:41;;;;;;;27.42;7.60;;;5.80;99.90;;;;;;5071843;28;20072;-72
2024/02/02 00:39:07;;;;;;;23.58;5.35;;;5.80;99.90;;;;;;5071410;28;20051;-72
2024/02/02 00:41:32;;;;;;;29.23;6.95;;;6.00;99.90;;;;;;5071774;28;20119;-72
2024/02/02 00:43:58;;;;;;;21.38;6.00;;;6.00;99.90;;;;;;5071835;28;20071;-73
2024/02/02 00:46:24;;;;;;;27.98;5.95;;;6.00;99.90;;;;;;5071693;28;20385;-72
2024/02/02 00:48:49;;;;;;;24.15;6.93;;;6.00;99.90;;;;;;5071628;28;20042;-72
2024/02/02 00:51:15;;;;;;;21.90;6.47;;;6.00;99.90;;;;;;5071615;28;20110;-72
2024/02/02 00:53:40;;;;;;;28.42;6.40;;;5.90;99.90;;;;;;5053968;28;20076;-73
2024/02/02 00:56:06;;;;;;;25.73;7.88;;;6.10;99.90;;;;;;5053051;28;20112;-72
2024/02/02 00:58:32;;;;;;;25.60;6.93;;;6.00;99.90;;;;;;5071413;28;20033;-72
2024/02/02 01:00:57;;;;;;;29.00;7.43;;;5.90;99.90;;;;;;5053330;28;20041;-73
2024/02/02 01:03:23;;;;;;;20.77;6.00;;;6.00;99.90;;;;;;5071637;28;20036;-72
2024/02/02 01:05:49;;;;;;;23.27;6.55;;;6.00;99.90;;;;;;5053164;28;20439;-72
2024/02/02 01:08:14;;;;;;;23.45;5.90;;;6.20;99.90;;;;;;5071383;28;20034;-73
2024/02/02 01:10:40;;;;;;;24.80;7.32;;;6.00;99.90;;;;;;5071197;28;20033;-73
2024/02/02 01:13:06;;;;;;;26.27;7.20;;;6.10;99.90;;;;;;5053660;28;20048;-73
2024/02/02 01:15:31;;;;;;;25.65;7.60;;;6.10;99.90;;;;;;5071176;28;20036;-72
2024/02/02 01:17:57;;;;;;;26.85;9.88;;;6.20;99.90;;;;;;5053204;28;20044;-72
2024/02/02 01:20:23;;;;;;;18.58;6.53;;;6.10;99.90;;;;;;5053113;28;20094;-73
2024/02/02 01:22:49;;;;;;;23.52;6.60;;;6.20;99.90;;;;;;5070810;28;20078;-72
2024/02/02 01:25:14;;;;;;;17.25;6.10;;;6.20;99.90;;;;;;5053265;28;20033;-72
2024/02/02 01:27:41;;;;;;;19.08;5.95;;;6.10;99.90;;;;;;5071436;28;20494;-73
2024/02/02 01:30:08;;;;;;;17.27;5.82;;;6.10;99.90;;;;;;5071122;28;20488;-73
2024/02/02 01:32:34;;;;;;;20.90;6.65;;;6.10;99.90;;;;;;5071263;28;20549;-72
2024/02/02 01:35:00;;;;;;;16.67;5.95;;;6.20;99.90;;;;;;5071000;28;20044;-73
2024/02/02 01:37:26;;;;;;;21.20;6.10;;;6.10;99.90;;;;;;5053220;28;20412;-72
2024/02/02 01:39:51;;;;;;;20.75;7.05;;;6.10;99.90;;;;;;5052831;28;20045;-73
2024/02/02 01:42:17;;;;;;;18.55;6.47;;;6.10;99.90;;;;;;5071156;28;20680;-72
2024/02/02 01:44:43;;;;;;;20.40;6.88;;;6.20;99.90;;;;;;5071081;28;20538;-73
2024/02/02 01:47:09;;;;;;;20.67;7.63;;;6.20;99.90;;;;;;5071156;28;20037;-73
2024/02/02 01:49:34;;;;;;;29.83;7.97;;;6.10;99.90;;;;;;5070936;28;20041;-73
2024/02/02 01:52:02;;;;;;;21.13;6.55;;;6.20;99.90;;;;;;5053004;28;20448;-73
2024/02/02 01:54:29;;;;;;;20.70;6.32;;;6.00;99.90;;;;;;5052940;28;20093;-73
2024/02/02 01:56:55;;;;;;;24.02;6.78;;;6.20;99.90;;;;;;5053001;28;20044;-73
2024/02/02 01:59:21;;;;;;;20.75;7.22;;;6.20;99.90;;;;;;5052708;28;20101;-73
2024/02/02 02:01:47;;;;;;;22.10;6.55;;;6.10;99.90;;;;;;5053099;28;20119;-73
2024/02/02 02:04:13;;;;;;;23.63;7.22;;;6.00;99.90;;;;;;5070940;28;20040;-73
2024/02/02 02:06:41;;;;;;;20.15;7.40;;;6.00;99.90;;;;;;5070849;28;20043;-73
2024/02/02 02:09:10;;;;;;;21.58;6.70;;;6.00;99.90;;;;;;5052774;28;20040;-73
2024/02/02 02:11:37;;;;;;;28.42;10.23;;;6.20;99.90;;;;;;5070967;28;20044;-73
2024/02/02 02:14:03;;;;;;;31.90;9.43;;;6.00;99.90;;;;;;5052996;28;20041;-73
2024/02/02 02:16:28;;;;;;;25.88;8.25;;;6.00;99.90;;;;;;5070616;28;20033;-73
2024/02/02 02:18:54;;;;;;;28.08;8.32;;;6.10;99.90;;;;;;5052649;28;20510;-73
2024/02/02 02:21:27;;;;;;;31.08;7.40;;;6.10;99.90;;;;;;5052930;28;20392;-73
2024/02/02 02:23:54;;;;;;;30.33;8.25;;;6.30;99.90;;;;;;5071053;28;20044;-73
2024/02/02 02:26:20;;;;;;;33.08;8.98;;;6.30;99.90;;;;;;5070807;28;20028;-73
2024/02/02 02:28:46;;;;;;;29.08;8.95;;;6.20;99.90;;;;;;5070687;28;20606;-73
2024/02/02 02:31:13;;;;;;;26.25;7.80;;;6.10;99.90;;;;;;5070694;28;20048;-72
2024/02/02 02:33:40;;;;;;;28.80;8.85;;;6.40;99.90;;;;;;5070793;28;20083;-73
2024/02/02 02:36:07;;;;;;;23.65;8.30;;;6.20;99.90;;;;;;5073891;28;20072;-72
2024/02/02 02:38:33;;;;;;;24.67;8.68;;;6.20;99.90;;;;;;5074363;28;20121;-72
2024/02/02 02:40:59;;;;;;;26.90;8.85;;;6.30;99.90;;;;;;5055584;28;20047;-73
2024/02/02 02:43:27;;;;;;;35.30;8.48;;;6.20;99.90;;;;;;5074163;28;20461;-72
2024/02/02 02:45:53;;;;;;;31.48;7.88;;;6.10;99.90;;;;;;5074097;28;20029;-73
2024/02/02 02:48:19;;;;;;;25.67;8.73;;;6.20;99.90;;;;;;5073872;28;20047;-72
2024/02/02 02:50:45;;;;;;;22.40;9.07;;;6.40;99.90;;;;;;5073771;28;20425;-72
2024/02/02 02:53:10;;;;;;;21.70;8.40;;;6.20;99.90;;;;;;5074279;28;20162;-73
2024/02/02 02:55:36;;;;;;;18.45;7.57;;;6.20;99.90;;;;;;5073976;28;20116;-72
2024/02/02 02:58:02;;;;;;;24.65;9.30;;;6.40;99.90;;;;;;5073918;28;20044;-73
2024/02/02 03:00:29;;;;;;;39.72;11.40;;;6.40;99.90;;;;;;5055767;28;20409;-73
2024/02/02 03:02:55;;;;;;;27.60;9.63;;;6.20;99.90;;;;;;5055504;28;20047;-73
2024/02/02 03:05:21;;;;;;;29.20;9.52;;;6.20;99.90;;;;;;5069920;28;20045;-73
2024/02/02 03:07:46;;;;;;;24.75;9.68;;;6.30;99.90;;;;;;5034919;28;20044;-73
2024/02/02 03:10:12;;;;;;;28.58;8.70;;;6.20;99.90;;;;;;5035353;28;20041;-73
2024/02/02 03:12:38;;;;;;;24.13;9.80;;;6.10;99.90;;;;;;5035939;28;20050;-73
2024/02/02 03:15:04;;;;;;;27.92;10.05;;;6.30;99.90;;;;;;5053488;28;20045;-72
2024/02/02 03:17:30;;;;;;;26.95;9.63;;;6.30;99.90;;;;;;5035619;28;20120;-72
2024/02/02 03:19:55;;;;;;;26.25;10.52;;;6.20;99.90;;;;;;5053234;28;20436;-72
2024/02/02 03:22:21;;;;;;;29.80;10.50;;;6.20;99.90;;;;;;5053714;28;20037;-72
2024/02/02 03:24:46;;;;;;;25.50;8.35;;;6.40;99.90;;;;;;5053481;28;20037;-73
2024/02/02 03:27:12;;;;;;;33.13;10.15;;;6.10;99.90;;;;;;5053467;28;20098;-72
2024/02/02 03:29:38;;;;;;;31.35;9.65;;;6.40;99.90;;;;;;5053241;28;20094;-73
2024/02/02 03:32:04;;;;;;;22.25;8.82;;;6.20;99.90;;;;;;5053289;28;20041;-72
2024/02/02 03:34:30;;;;;;;20.70;9.02;;;6.30;99.90;;;;;;5053040;28;20037;-72
2024/02/02 03:36:55;;;;;;;31.50;10.48;;;6.30;99.90;;;;;;5053398;28;20094;-72
2024/02/02 03:39:21;;;;;;;21.67;8.38;;;6.10;99.90;;;;;;5053142;28;20094;-73
2024/02/02 03:41:47;;;;;;;28.15;10.85;;;6.20;99.90;;;;;;5053312;28;20400;-72
2024/02/02 03:44:12;;;;;;;26.48;8.77;;;6.40;99.90;;;;;;5053142;28;20097;-72
2024/02/02 03:46:38;;;;;;;34.70;11.93;;;6.20;99.90;;;;;;5034935;28;20048;-72
2024/02/02 03:49:04;;;;;;;29.60;8.40;;;6.40;99.90;;;;;;5052735;28;20071;-72
2024/02/02 03:51:29;;;;;;;21.70;9.10;;;6.30;99.90;;;;;;5052608;28;20041;-73
2024/02/02 03:53:55;;;;;;;25.90;8.95;;;6.30;99.90;;;;;;5052989;28;20490;-72
2024/02/02 03:56:21;;;;;;;22.13;9.32;;;6.30;99.90;;;;;;5052822;28;20090;-72
2024/02/02 03:58:46;;;;;;;23.63;8.80;;;6.20;99.90;;;;;;5052734;28;20045;-72
2024/02/02 04:01:12;;;;;;;29.08;8.82;;;6.40;99.90;;;;;;5034819;28;20033;-73
2024/02/02 04:03:38;;;;;;;25.38;8.05;;;6.30;99.90;;;;;;5034843;28;20067;-73
2024/02/02 04:06:03;;;;;;;21.13;7.10;;;6.30;99.90;;;;;;5052768;28;20036;-73
2024/02/02 04:08:29;;;;;;;30.48;8.75;;;6.30;99.90;;;;;;5052706;28;20166;-72
2024/02/02 04:10:55;;;;;;;22.85;7.13;;;6.40;99.90;;;;;;5034488;28;20044;-73
2024/02/02 04:13:20;;;;;;;26.70;8.50;;;6.20;99.90;;;;;;5052637;28;20064;-73
2024/02/02 04:15:46;;;;;;;19.35;8.18;;;6.30;99.90;;;;;;5052209;28;20514;-72
2024/02/02 04:18:12;;;;;;;28.05;8.15;;;6.30;99.90;;;;;;5034423;28;20122;-72
2024/02/02 04:20:37;;;;;;;20.23;7.25;;;6.20;99.90;;;;;;5052004;28;20041;-72
2024/02/02 04:23:03;;;;;;;20.85;6.57;;;6.40;99.90;;;;;;5034509;28;20067;-73
2024/02/02 04:25:29;;;;;;;20.63;7.60;;;6.40;99.90;;;;;;5034200;28;20417;-72
2024/02/02 04:27:55;;;;;;;31.00;8.10;;;6.20;99.90;;;;;;5034157;28;20365;-72
2024/02/02 04:30:20;;;;;;;29.50;7.95;;;6.20;99.90;;;;;;5051920;28;20072;-72
2024/02/02 04:32:46;;;;;;;23.00;7.55;;;6.20;99.90;;;;;;5034220;28;20124;-72
2024/02/02 04:35:12;;;;;;;39.85;9.25;;;6.30;99.90;;;;;;5052059;28;20116;-72
2024/02/02 04:37:39;;;;;;;21.65;7.53;;;6.30;99.90;;;;;;5051973;28;20382;-72
2024/02/02 04:40:05;;;;;;;25.95;6.93;;;6.20;99.90;;;;;;5033791;28;20497;-72
2024/02/02 04:42:31;;;;;;;19.70;7.43;;;6.40;99.90;;;;;;5034121;28;20048;-73
2024/02/02 04:44:56;;;;;;;24.08;8.68;;;6.30;99.90;;;;;;5033855;28;20033;-72
2024/02/02 04:47:22;;;;;;;26.48;8.23;;;6.30;99.90;;;;;;5033897;28;20399;-72
2024/02/02 04:49:48;;;;;;;22.52;6.57;;;6.30;99.90;;;;;;5051604;28;20045;-72
2024/02/02 04:52:14;;;;;;;24.83;8.20;;;6.20;99.90;;;;;;5033932;28;20052;-73
2024/02/02 04:54:40;;;;;;;25.80;8.77;;;6.20;99.90;;;;;;5051630;28;20041;-73
2024/02/02 04:57:06;;;;;;;19.63;8.00;;;6.30;99.90;;;;;;5050925;28;20119;-72
2024/02/02 04:59:33;;;;;;;28.15;8.05;;;6.30;99.90;;;;;;5033435;28;20132;-72
2024/02/02 05:01:59;;;;;;;19.08;8.02;;;6.50;99.90;;;;;;5033806;28;20037;-72
2024/02/02 05:04:25;;;;;;;18.83;8.57;;;6.40;99.90;;;;;;5017248;28;20488;-72
2024/02/02 05:06:50;;;;;;;24.77;8.27;;;6.30;99.90;;;;;;5051672;28;20043;-72
2024/02/02 05:09:16;;;;;;;23.08;6.93;;;6.30;99.90;;;;;;5051416;28;20558;-72
2024/02/02 05:11:42;;;;;;;23.17;6.93;;;6.30;99.90;;;;;;5051509;28;20037;-72
2024/02/02 05:14:07;;;;;;;20.48;6.03;;;6.20;99.90;;;;;;5051362;28;20047;-72
2024/02/02 05:16:33;;;;;;;24.63;7.68;;;6.30;99.90;;;;;;5051297;28;20415;-72
2024/02/02 05:18:58;;;;;;;25.85;6.90;;;6.30;99.90;;;;;;5051266;28;20037;-72
2024/02/02 05:21:24;;;;;;;16.25;6.28;;;6.30;99.90;;;;;;5051431;28;20040;-72
2024/02/02 05:23:50;;;;;;;21.15;6.30;;;6.30;99.90;;;;;;5051469;28;20047;-72
2024/02/02 05:26:16;;;;;;;19.45;6.45;;;6.20;99.90;;;;;;5033751;28;20408;-72
2024/02/02 05:28:42;;;;;;;24.95;6.30;;;6.20;99.90;;;;;;5051287;28;20041;-72
2024/02/02 05:31:08;;;;;;;28.90;6.90;;;6.20;99.90;;;;;;5033257;28;20053;-72
2024/02/02 05:33:33;;;;;;;26.55;6.65;;;6.30;99.90;;;;;;5033149;28;20037;-72
2024/02/02 05:35:59;;;;;;;21.40;6.75;;;6.30;99.90;;;;;;5051226;28;20456;-72
2024/02/02 05:38:25;;;;;;;25.90;5.60;;;6.30;99.90;;;;;;5051347;28;20033;-72
2024/02/02 05:40:50;;;;;;;24.48;5.80;;;6.40;99.90;;;;;;5050985;28;20045;-72
2024/02/02 05:43:16;;;;;;;19.10;7.10;;;6.20;99.90;;;;;;5033620;28;20041;-72
2024/02/02 05:45:42;;;;;;;22.92;6.70;;;6.40;99.90;;;;;;5051068;28;20576;-72
2024/02/02 05:48:07;;;;;;;18.80;5.60;;;6.20;99.90;;;;;;5033310;28;20123;-72
2024/02/02 05:50:33;;;;;;;26.25;5.28;;;6.40;99.90;;;;;;5050889;28;20045;-72
2024/02/02 05:52:58;;;;;;;26.48;6.68;;;6.40;99.90;;;;;;5051293;28;20087;-72
2024/02/02 05:55:24;;;;;;;22.02;5.55;;;6.20;99.90;;;;;;5050974;28;20507;-72
2024/02/02 05:57:50;;;;;;;25.55;5.82;;;6.30;99.90;;;;;;5051013;28;20119;-72
2024/02/02 06:00:18;;;;;;;23.83;4.68;;;6.40;99.90;;;;;;5032992;28;20101;-72
2024/02/02 06:02:44;;;;;;;25.58;4.70;;;6.20;99.90;;;;;;5051283;28;20098;-72
2024/02/02 06:05:10;;;;;;;19.83;4.60;;;6.30;99.90;;;;;;5033352;28;20540;-72
2024/02/02 06:07:36;;;;;;;20.95;4.70;;;6.30;99.90;;;;;;5051009;28;20052;-72
2024/02/02 06:10:01;;;;;;;13.77;4.63;;;6.40;99.90;;;;;;5054515;28;20045;-72
2024/02/02 06:12:27;;;;;;;24.33;7.00;;;6.20;99.90;;;;;;5054756;28;20543;-72
2024/02/02 06:14:53;;;;;;;16.48;5.22;;;6.30;99.90;;;;;;5036918;28;20040;-72
2024/02/02 06:17:18;;;;;;;19.60;5.55;;;6.30;99.90;;;;;;5020294;28;20041;-72
2024/02/02 06:19:44;;;;;;;21.48;4.43;;;6.20;99.90;;;;;;5054563;28;20033;-72
2024/02/02 06:22:09;;;;;;;18.90;3.97;;;6.40;99.90;;;;;;5036714;28;20090;-72
2024/02/02 06:24:35;;;;;;;26.27;4.53;;;6.30;99.90;;;;;;5054605;28;20045;-72
2024/02/02 06:27:01;;;;;;;16.45;5.75;;;6.30;99.90;;;;;;5054592;28;20037;-72
2024/02/02 06:29:26;;;;;;;20.75;4.57;;;6.20;99.90;;;;;;5036351;28;20040;-72
2024/02/02 06:31:52;;;;;;;21.13;4.22;;;6.30;99.90;;;;;;5036648;28;20033;-72
2024/02/02 06:34:18;;;;;;;27.67;5.55;;;6.20;99.90;;;;;;5036529;28;20082;-72
2024/02/02 06:36:43;;;;;;;21.48;4.53;;;6.30;99.90;;;;;;5036183;28;20072;-72
2024/02/02 06:39:09;;;;;;;19.23;4.68;;;6.10;99.90;;;;;;5036041;28;20070;-72
2024/02/02 06:41:34;;;;;;;18.38;4.97;;;6.20;99.90;;;;;;5036377;28;20048;-72
2024/02/02 06:44:00;;;;;;;25.92;4.65;;;6.20;99.90;;;;;;5054189;28;20041;-72
2024/02/02 06:46:26;;;;;;;21.40;4.35;;;6.10;99.90;;;;;;5053932;28;20465;-72
2024/02/02 06:48:52;;;;;;;24.75;5.15;;;6.00;99.90;;;;;;5054251;28;20075;-72
2024/02/02 06:51:17;;;;;;;19.73;4.32;;;6.00;99.90;;;;;;5036296;28;20037;-72
2024/02/02 06:53:44;;;;;;;23.58;5.00;;;6.00;99.90;;;;;;5036114;28;20492;-72
2024/02/02 06:56:36;;;;;;;25.45;4.93;;;6.00;99.90;;;;;;5036042;28;20512;-74
2024/02/02 06:59:02;;;;;;;25.90;5.43;;;6.10;99.90;;;;;;5035763;28;20056;-72
2024/02/02 07:01:27;;;;;;;19.40;5.47;;;6.10;99.90;;;;;;5035935;28;20029;-72
2024/02/02 07:03:53;;;;;;;17.88;4.65;;;6.10;99.90;;;;;;5054003;28;20143;-72
2024/02/02 07:06:19;;;;;;;18.77;4.72;;;6.00;99.90;;;;;;5053493;28;20174;-73
2024/02/02 07:08:45;;;;;;;26.38;4.82;;;6.00;99.90;;;;;;5035616;28;20112;-73
2024/02/02 07:11:13;;;;;;;20.77;5.45;;;6.10;99.90;;;;;;5035098;28;20033;-72
2024/02/02 07:13:47;;;;;;;19.13;5.57;;;5.90;99.90;;;;;;5053736;28;20060;-72
2024/02/02 07:16:19;;;;;;;28.05;4.40;;;6.00;99.90;;;;;;5035814;28;20080;-72
2024/02/02 07:18:46;;;;;;;23.67;5.20;;;5.90;99.90;;;;;;5035646;28;20041;-72
2024/02/02 07:21:13;;;;;;;29.00;4.95;;;6.00;99.90;;;;;;5052522;28;20029;-72
2024/02/02 07:23:41;;;;;;;30.15;5.90;;;5.90;99.90;;;;;;5035474;28;20047;-71
2024/02/02 07:26:17;;;;;;;20.73;6.28;;;6.00;99.90;;;;;;5053193;28;20047;-72
2024/02/02 07:28:42;;;;;;;16.10;4.15;;;5.90;99.90;;;;;;5053321;28;20033;-71
2024/02/02 07:31:08;;;;;;;17.75;4.00;;;5.90;99.90;;;;;;5053400;28;20039;-72
2024/02/02 07:33:40;;;;;;;24.52;6.60;;;5.90;99.90;;;;;;5053405;28;20033;-71
2024/02/02 07:36:17;;;;;;;18.55;6.05;;;6.10;99.90;;;;;;5053218;28;20794;-72
2024/02/02 07:38:53;;;;;;;24.02;4.35;;;6.10;99.90;;;;;;5053130;28;20496;-72
2024/02/02 07:41:24;;;;;;;21.50;6.63;;;6.20;99.90;;;;;;5053699;28;20690;-72
2024/02/02 07:43:50;;;;;;;21.25;5.35;;;6.10;99.90;;;;;;5053152;28;20041;-72
2024/02/02 07:46:17;;;;;;;20.33;5.65;;;6.30;99.90;;;;;;5052881;28;20041;-72
2024/02/02 07:48:43;;;;;;;22.27;5.38;;;6.30;99.90;;;;;;5035138;28;20079;-72
2024/02/02 07:51:10;;;;;;;22.58;5.22;;;6.10;99.90;;;;;;5052981;28;20465;-72
2024/02/02 07:53:36;;;;;;;30.10;5.18;;;6.30;99.90;;;;;;5052975;28;20044;-72
2024/02/02 07:56:02;;;;;;;29.15;5.40;;;6.30;99.90;;;;;;5034977;28;20044;-76
2024/02/02 07:58:27;;;;;;;27.27;5.80;;;6.40;99.90;;;;;;5052842;28;20524;-73
2024/02/02 08:00:53;;;;;;;24.40;6.22;;;6.50;99.90;;;;;;5051486;28;20099;-75
2024/02/02 08:03:19;;;;;;;27.13;7.68;;;6.40;99.90;;;;;;5034586;28;20040;-75
2024/02/02 08:05:45;;;;;;;22.50;5.57;;;6.50;99.90;;;;;;5052655;28;20041;-76
2024/02/02 08:08:11;;;;;;;21.50;5.95;;;6.30;99.90;;;;;;5034859;28;20488;-74
2024/02/02 08:10:42;;;;;;;28.27;6.18;;;6.40;99.90;;;;;;5034578;28;20090;-76
2024/02/02 08:13:12;;;;;;;25.15;5.38;;;6.50;99.90;;;;;;5052629;28;20051;-74
2024/02/02 08:15:38;;;;;;;20.40;5.68;;;6.50;99.90;;;;;;5034373;28;20072;-75
2024/02/02 08:18:08;;;;;;;26.00;7.10;;;6.40;99.90;;;;;;5052453;28;20044;-75
2024/02/02 08:20:34;;;;;;;26.27;6.40;;;6.60;99.90;;;;;;5034344;28;20041;-74
2024/02/02 08:23:01;;;;;;;23.20;5.80;;;6.50;99.90;;;;;;5052496;28;20046;-75
2024/02/02 08:25:27;;;;;;;26.63;6.80;;;6.50;99.90;;;;;;5052275;28;20041;-75
2024/02/02 08:27:52;;;;;;;37.97;5.57;;;6.70;99.90;;;;;;5034347;28;20029;-75
2024/02/02 08:30:18;;;;;;;20.05;5.18;;;6.60;99.90;;;;;;5034559;28;20126;-75
2024/02/02 08:32:51;;;;;;;24.20;6.00;;;6.60;99.90;;;;;;5052449;28;20045;-75
2024/02/02 08:35:18;;;;;;;24.88;6.40;;;6.50;99.90;;;;;;5034533;28;20040;-75
2024/02/02 08:37:44;;;;;;;20.58;6.07;;;6.70;99.90;;;;;;5034179;28;20107;-75
2024/02/02 08:40:21;;;;;;;22.88;6.18;;;6.60;99.90;;;;;;5051448;28;20520;-75
2024/02/02 08:42:47;;;;;;;27.35;7.82;;;6.50;99.90;;;;;;5052072;28;20040;-75
2024/02/02 08:45:42;;;;;;;32.78;5.13;;;6.70;99.90;;;;;;5034038;28;20485;-76
2024/02/02 08:48:23;;;;;;;36.35;6.45;;;6.60;99.90;;;;;;5019613;28;20041;-76
2024/02/02 08:50:58;;;;;;;28.25;6.20;;;6.70;99.90;;;;;;5033912;28;20041;-75
2024/02/02 08:53:24;;;;;;;27.27;7.68;;;6.60;99.90;;;;;;5034244;28;20080;-75
2024/02/02 08:55:51;;;;;;;25.77;4.97;;;6.60;99.90;;;;;;5051843;28;20041;-74
2024/02/02 08:58:21;;;;;;;20.00;6.28;;;6.80;99.90;;;;;;5038996;28;20515;-75
2024/02/02 09:00:49;;;;;;;22.10;7.30;;;6.80;99.90;;;;;;5062908;28;20083;-74
2024/02/02 09:03:18;;;;;;;33.90;6.90;;;6.80;99.90;;;;;;5062744;28;20071;-75
2024/02/02 09:06:04;;;;;;;29.65;7.05;;;6.70;99.90;;;;;;5052016;28;20048;-75
2024/02/02 09:08:41;;;;;;;37.80;7.20;;;6.80;99.90;;;;;;5053798;28;20120;-75
2024/02/02 09:11:36;;;;;;;18.27;6.05;;;6.90;99.90;;;;;;5034631;28;20072;-74
2024/02/02 09:14:07;;;;;;;25.40;6.90;;;6.80;99.90;;;;;;5039025;28;20048;-74
2024/02/02 09:17:06;;;;;;;31.17;9.27;;;6.80;99.90;;;;;;5067827;28;20105;-75
2024/02/02 09:19:45;;;;;;;27.95;7.57;;;7.10;99.90;;;;;;5026969;28;20052;-74
2024/02/02 09:22:15;;;;;;;24.98;8.23;;;7.10;99.90;;;;;;5053601;28;20420;-74
2024/02/02 09:24:46;;;;;;;24.58;6.10;;;7.00;99.90;;;;;;5071605;28;20041;-74
2024/02/02 09:27:28;;;;;;;24.77;5.97;;;7.00;99.90;;;;;;5053687;28;20043;-75
2024/02/02 09:29:54;;;;;;;37.95;7.78;;;7.10;99.90;;;;;;5053358;28;20036;-75
2024/02/02 09:32:20;;;;;;;24.65;6.97;;;7.20;99.90;;;;;;5071538;28;20518;-75
2024/02/02 09:34:46;;;;;;;29.58;8.07;;;7.20;99.90;;;;;;5053542;28;20033;-75
2024/02/02 09:37:24;;;;;;;20.38;5.78;;;7.30;99.90;;;;;;5053360;28;20041;-74
2024/02/02 09:39:54;;;;;;;27.92;6.82;;;7.20;99.90;;;;;;5071038;28;20040;-75
2024/02/02 09:42:54;;;;;;;25.13;7.50;;;7.40;99.90;;;;;;5053294;28;20041;-75
2024/02/02 09:45:35;;;;;;;29.95;6.53;;;7.40;99.90;;;;;;5057565;28;20115;-75
2024/02/02 09:48:12;;;;;;;23.00;6.10;;;7.40;99.90;;;;;;5040766;28;20123;-75
2024/02/02 09:50:50;;;;;;;32.22;7.68;;;7.40;99.90;;;;;;5057292;28;20101;-77
2024/02/02 09:53:49;;;;;;;21.45;6.60;;;7.40;99.90;;;;;;5075292;28;20051;-75
2024/02/02 09:56:44;;;;;;;25.00;6.57;;;7.40;99.90;;;;;;5056836;28;20055;-74
2024/02/02 09:59:49;;;;;;;29.52;7.30;;;7.50;99.90;;;;;;5031402;28;20132;-75
2024/02/02 10:02:30;;;;;;;20.10;5.97;;;7.60;99.90;;;;;;5048385;28;20084;-75
2024/02/02 10:05:27;;;;;;;18.90;6.57;;;7.70;99.90;;;;;;5056911;28;20076;-75
2024/02/02 10:08:07;;;;;;;27.88;8.90;;;7.60;99.90;;;;;;5056903;28;20507;-75
2024/02/02 10:11:13;;;;;;;30.38;5.97;;;7.70;99.90;;;;;;5074892;28;20032;-74
2024/02/02 10:14:15;;;;;;;30.55;7.28;;;7.70;99.90;;;;;;5006363;28;20045;-74
2024/02/02 10:17:10;;;;;;;25.17;6.75;;;7.70;99.90;;;;;;5068828;22;20045;-73
2024/02/02 10:19:59;;;;;;;19.38;6.38;;;7.70;99.90;;;;;;5049781;28;20073;-73
2024/02/02 10:23:00;;;;;;;28.10;6.53;;;7.70;99.90;;;;;;5054376;28;20064;-72
2024/02/02 10:25:46;;;;;;;25.15;7.32;;;7.90;99.90;;;;;;5044579;28;20132;-73
2024/02/02 10:28:45;;;;;;;32.67;7.55;;;7.80;99.90;;;;;;5054643;28;20037;-72
2024/02/02 10:31:10;;;;;;;23.88;6.00;;;8.00;99.90;;;;;;5052761;28;20064;-72
2024/02/02 10:34:13;;;;;;;26.77;6.10;;;8.00;99.90;;;;;;5053430;28;20077;-72
2024/02/02 10:36:59;;;;;;;24.10;6.93;;;8.00;99.90;;;;;;5054467;28;20037;-73
2024/02/02 10:39:51;;;;;;;19.63;5.40;;;8.10;99.90;;;;;;5054183;28;20041;-72
2024/02/02 10:42:22;;;;;;;35.78;8.05;;;8.10;99.90;;;;;;5054402;28;20037;-72
2024/02/02 10:44:56;;;;;;;18.42;6.30;;;8.10;99.90;;;;;;5053134;28;20041;-72
2024/02/02 10:47:45;;;;;;;25.40;6.32;;;8.20;99.90;;;;;;5054334;28;20037;-72
2024/02/02 10:50:23;;;;;;;29.35;6.75;;;8.30;99.90;;;;;;5054021;28;20136;-72
2024/02/02 10:53:23;;;;;;;20.63;5.90;;;8.30;99.90;;;;;;5054537;28;20041;-72
2024/02/02 10:56:26;;;;;;;22.20;6.30;;;8.30;99.90;;;;;;5051477;28;20040;-72
2024/02/02 10:59:15;;;;;;;23.65;6.82;;;8.40;99.90;;;;;;5054157;28;20069;-73
2024/02/02 11:02:07;;;;;;;19.83;6.78;;;8.40;99.90;;;;;;5043217;28;20041;-72
2024/02/02 11:04:51;;;;;;;21.38;6.07;;;8.50;99.90;;;;;;5053842;28;20648;-72
2024/02/02 11:07:50;;;;;;;22.75;6.90;;;8.40;99.90;;;;;;5052588;28;20041;-73
2024/02/02 11:10:21;;;;;;;21.75;6.32;;;8.60;99.90;;;;;;5050446;28;20634;-72
2024/02/02 11:13:12;;;;;;;22.42;6.25;;;8.50;99.90;;;;;;5053889;28;20101;-72
2024/02/02 11:15:44;;;;;;;17.80;5.43;;;8.60;99.90;;;;;;5052230;28;20041;-73
2024/02/02 11:18:21;;;;;;;25.70;7.77;;;8.60;99.90;;;;;;5053886;28;20408;-73
2024/02/02 11:21:24;;;;;;;29.65;7.55;;;8.60;99.90;;;;;;5053447;28;20345;-72
2024/02/02 11:24:05;;;;;;;18.73;5.22;;;8.60;99.90;;;;;;5052321;28;20068;-73
2024/02/02 11:26:52;;;;;;;22.45;6.75;;;8.70;99.90;;;;;;5052201;28;20052;-73
2024/02/02 11:29:26;;;;;;;16.20;5.15;;;8.70;99.90;;;;;;5053342;28;20051;-73
2024/02/02 11:32:10;;;;;;;25.42;6.80;;;8.70;99.90;;;;;;5053395;28;20044;-72
2024/02/02 11:34:56;;;;;;;22.45;6.43;;;8.70;99.90;;;;;;5052054;28;20052;-73
2024/02/02 11:37:47;;;;;;;33.38;6.82;;;8.70;99.90;;;;;;5053332;28;20492;-72
2024/02/02 11:40:14;;;;;;;26.08;5.18;;;8.70;99.90;;;;;;5052994;28;20045;-73
2024/02/02 11:42:43;;;;;;;17.42;5.90;;;8.70;99.90;;;;;;5052361;28;20036;-72
2024/02/02 11:45:16;;;;;;;24.88;7.32;;;8.70;99.90;;;;;;5051859;28;20041;-73
2024/02/02 11:47:47;;;;;;;;;;;8.70;99.90;;;;;;5052339;28;20112;-72
2024/02/02 11:50:17;;;;;;;14.23;5.70;;;8.60;99.90;;;;;;5051655;28;19917;-73
2024/02/02 11:52:44;;;;;;;18.48;5.15;;;8.60;99.90;;;;;;5051760;28;20397;-72
2024/02/02 11:55:22;;;;;;;31.30;6.15;;;8.70;99.90;;;;;;5053102;28;20055;-72
2024/02/02 11:57:53;;;;;;;20.38;5.20;;;8.80;99.90;;;;;;5052956;28;20523;-72
2024/02/02 12:00:53;;;;;;;22.05;5.40;;;8.80;99.90;;;;;;5052733;28;20126;-73
2024/02/02 12:03:25;;;;;;;20.88;5.82;;;8.90;99.90;;;;;;5052805;28;20616;-72
2024/02/02 12:06:05;;;;;;;23.33;5.50;;;8.90;99.90;;;;;;5052581;28;20033;-72
2024/02/02 12:08:32;;;;;;;19.08;5.70;;;8.90;99.90;;;;;;5052773;28;20045;-72
2024/02/02 12:11:01;;;;;;;18.65;6.43;;;9.00;99.90;;;;;;5052473;28;20381;-73
2024/02/02 12:13:32;;;;;;;16.02;5.18;;;9.10;99.90;;;;;;5052487;28;20437;-72
2024/02/02 12:15:58;;;;;;;21.65;5.65;;;9.00;99.90;;;;;;5052366;28;20415;-73
2024/02/02 12:18:25;;;;;;;18.83;4.78;;;9.00;99.90;;;;;;5052651;28;20045;-72
2024/02/02 12:20:51;;;;;;;24.45;5.65;;;9.00;99.90;;;;;;5052401;28;20110;-72
2024/02/02 12:23:16;;;;;;;24.88;5.30;;;9.10;99.90;;;;;;5052551;28;20037;-72
2024/02/02 12:25:42;;;;;;;18.08;5.07;;;9.10;99.90;;;;;;5052383;28;20175;-73
2024/02/02 12:28:09;;;;;;;20.25;5.30;;;9.20;99.90;;;;;;5052243;28;20441;-72
2024/02/02 12:30:34;;;;;;;20.00;5.05;;;9.10;99.90;;;;;;5052395;28;20037;-73
2024/02/02 12:33:04;;;;;;;17.83;5.53;;;9.20;99.90;;;;;;5052364;28;20041;-73
2024/02/02 12:35:30;;;;;;;21.63;5.72;;;9.20;99.90;;;;;;5052233;28;20040;-73
2024/02/02 12:37:56;;;;;;;15.13;5.13;;;9.20;99.90;;;;;;5050979;28;20036;-73
2024/02/02 12:40:23;;;;;;;15.80;5.43;;;9.30;99.90;;;;;;5051967;28;20048;-73
2024/02/02 12:42:50;;;;;;;20.45;5.50;;;9.20;99.90;;;;;;5034471;28;20044;-72
2024/02/02 12:45:17;;;;;;;18.05;5.68;;;9.30;99.90;;;;;;5050907;28;20044;-73
2024/02/02 12:47:47;;;;;;;20.52;5.95;;;9.20;99.90;;;;;;5052051;28;20036;-72
2024/02/02 12:50:17;;;;;;;18.60;6.13;;;9.20;99.90;;;;;;5051960;28;20120;-72
2024/02/02 12:52:44;;;;;;;19.88;5.57;;;9.20;99.90;;;;;;5052079;28;20090;-72
2024/02/02 12:55:11;;;;;;;20.15;5.68;;;9.20;99.90;;;;;;5051779;28;20040;-72
2024/02/02 12:57:37;;;;;;;23.05;5.45;;;9.10;99.90;;;;;;5052065;28;20040;-72
2024/02/02 13:00:06;;;;;;;23.58;6.03;;;9.30;99.90;;;;;;5051804;28;20047;-73
2024/02/02 13:02:32;;;;;;;20.25;5.55;;;9.20;99.90;;;;;;5051891;28;20090;-73